Погода Жавнерчикина 2 недели

Витебская область, Белоруссия

25 мая-07 июня
  • 25мая
    Сегодня
    +12°
    +26°
    Ясно и безоблачно
    ВремяПогодаТемператураВлажностьДавлениеВетер, м/сВероятность осадков
    00:00Ясно и безоблачно+15°C65 %755 мм3.9 м/с2 %
    03:00Ясно и безоблачно+14°C73 %756 мм4.0 м/с2 %
    06:00Ясно и безоблачно+13°C69 %755 мм4.1 м/с2 %
    09:00Ясно и безоблачно+19°C63 %755 мм3.7 м/с2 %
    12:00Практически безоблачно+24°C48 %755 мм4.0 м/с2 %
    15:00Ясно и безоблачно+26°C40 %755 мм3.9 м/с2 %
    18:00Облачно с прояснениями+24°C49 %754 мм3.9 м/с10 %
    21:00Практически безоблачно+21°C71 %754 мм1.9 м/с5 %
  • 26мая
    Воскресенье
    +12°
    +26°
    Практически безоблачно
    ВремяПогодаТемператураВлажностьДавлениеВетер, м/сВероятность осадков
    00:00Ясно и безоблачно+15°C81 %754 мм2.1 м/с2 %
    03:00Ясно и безоблачно+14°C83 %754 мм2.2 м/с2 %
    06:00Ясно и безоблачно+13°C82 %755 мм2.0 м/с2 %
    09:00Ясно и безоблачно+20°C59 %755 мм0.8 м/с2 %
    12:00Практически безоблачно+24°C43 %755 мм0.4 м/с2 %
    15:00Практически безоблачно+26°C39 %755 мм1.7 м/с2 %
    18:00Практически безоблачно+26°C39 %754 мм2.3 м/с2 %
    21:00Облачно с прояснениями+20°C63 %754 мм2.0 м/с2 %
  • 27мая
    Понедельник
    +13°
    +27°
    Ясно и безоблачно
    ВремяПогодаТемператураВлажностьДавлениеВетер, м/сВероятность осадков
    00:00Ясно и безоблачно+14°C73 %754 мм2.0 м/с2 %
    03:00Ясно и безоблачно+13°C84 %754 мм1.8 м/с2 %
    06:00Ясно и безоблачно+14°C79 %754 мм1.0 м/с2 %
    09:00Ясно и безоблачно+21°C54 %755 мм1.2 м/с2 %
    12:00Ясно и безоблачно+25°C41 %754 мм1.9 м/с2 %
    15:00Ясно и безоблачно+26°C40 %754 мм2.1 м/с8 %
    18:00Ясно и безоблачно+25°C40 %753 мм1.8 м/с17 %
    21:00Ясно и безоблачно+21°C70 %752 мм2.2 м/с4 %
  • 28мая
    Вторник
    +14°
    +26°
    Ясно и безоблачно
    ВремяПогодаТемператураВлажностьДавлениеВетер, м/сВероятность осадков
    00:00Ясно и безоблачно+17°C74 %752 мм2.7 м/с2 %
    03:00Ясно и безоблачно+15°C87 %752 мм2.3 м/с2 %
    06:00Ясно и безоблачно+15°C86 %751 мм2.4 м/с2 %
    09:00Ясно и безоблачно+22°C65 %752 мм1.6 м/с2 %
    12:00Ясно и безоблачно+24°C42 %751 мм3.2 м/с10 %
    15:00Ясно и безоблачно+25°C35 %750 мм2.9 м/с26 %
    18:00Небольшая облачность+25°C39 %749 мм2.7 м/с47 %
    21:00Небольшая облачность+21°C70 %749 мм1.8 м/с17 %
  • 29мая
    Среда
    +13°
    +27°
    Облачно с прояснениями
    ВремяПогодаТемператураВлажностьДавлениеВетер, м/сВероятность осадков
    00:00Небольшая облачность+17°C79 %749 мм2.7 м/с3 %
    03:00Ясно и безоблачно+15°C92 %748 мм2.1 м/с2 %
    06:00Ясно и безоблачно+15°C90 %748 мм2.7 м/с3 %
    09:00Облачно с прояснениями+21°C67 %748 мм2.2 м/с2 %
    12:00Облачно с прояснениями+25°C45 %747 мм1.5 м/с19 %
    15:00Облачно с прояснениями+27°C38 %747 мм1.1 м/с42 %
    18:00Облачно с прояснениями, небольшой дождь+25°C49 %746 мм4.0 м/с56 %
    21:00Облачно с прояснениями+22°C66 %746 мм2.1 м/с15 %
Мы используем cookies
Соглашаюсь